createdAt,value
2022-09-24T00:01:16.332Z,13.80
2022-09-24T00:03:47.778Z,13.80
2022-09-24T00:06:14.474Z,13.80
2022-09-24T00:08:41.959Z,13.80
2022-09-24T00:11:12.223Z,13.80
2022-09-24T00:13:39.775Z,13.80
2022-09-24T00:16:09.258Z,13.80
2022-09-24T00:18:36.667Z,13.80
2022-09-24T00:21:12.243Z,13.70
2022-09-24T00:23:38.976Z,13.70
2022-09-24T00:26:24.390Z,13.70
2022-09-24T00:28:52.957Z,13.70
2022-09-24T00:31:19.723Z,13.70
2022-09-24T00:33:46.464Z,13.70
2022-09-24T00:36:14.797Z,13.60
2022-09-24T00:38:41.519Z,13.60
2022-09-24T00:41:08.283Z,13.60
2022-09-24T00:43:37.712Z,13.60
2022-09-24T00:46:13.114Z,13.60
2022-09-24T00:48:41.210Z,13.60
2022-09-24T00:51:09.787Z,13.60
2022-09-24T00:53:36.804Z,13.60
2022-09-24T00:56:06.021Z,13.60
2022-09-24T00:58:32.929Z,13.60
2022-09-24T01:01:04.775Z,13.60
2022-09-24T01:03:39.685Z,13.60
2022-09-24T01:06:07.115Z,13.60
2022-09-24T01:08:33.948Z,13.60
2022-09-24T01:11:10.898Z,13.50
2022-09-24T01:13:57.195Z,13.50
2022-09-24T01:16:33.439Z,13.50
2022-09-24T01:19:15.002Z,15.00
2022-09-24T01:21:49.317Z,13.50
2022-09-24T01:24:37.098Z,13.50
2022-09-24T01:27:10.234Z,13.40
2022-09-24T01:29:46.537Z,13.40
2022-09-24T01:32:20.099Z,13.40
2022-09-24T01:34:52.106Z,13.40
2022-09-24T01:37:22.846Z,13.40
2022-09-24T01:39:52.142Z,13.40
2022-09-24T01:42:21.136Z,13.40
2022-09-24T01:44:50.528Z,13.40
2022-09-24T01:47:22.351Z,13.40
2022-09-24T01:49:53.377Z,13.30
2022-09-24T01:52:25.922Z,13.40
2022-09-24T01:54:56.771Z,13.30
2022-09-24T01:57:27.704Z,13.30
2022-09-24T02:00:00.004Z,13.30
2022-09-24T02:02:33.864Z,13.30
2022-09-24T02:05:11.999Z,13.30
2022-09-24T02:07:44.962Z,13.30
2022-09-24T02:10:15.695Z,13.30
2022-09-24T02:12:45.693Z,13.30
2022-09-24T02:15:15.027Z,13.30
2022-09-24T02:17:45.436Z,13.20
2022-09-24T02:20:15.874Z,13.20
2022-09-24T02:22:45.708Z,13.30
2022-09-24T02:25:16.323Z,13.30
2022-09-24T02:27:43.190Z,13.30
2022-09-24T02:30:10.945Z,13.30
2022-09-24T02:32:42.598Z,13.20
2022-09-24T02:35:11.570Z,13.20
2022-09-24T02:37:40.673Z,13.10
2022-09-24T02:40:10.269Z,13.20
2022-09-24T02:42:37.742Z,13.20
2022-09-24T02:47:32.459Z,13.10
2022-09-24T02:50:00.844Z,13.10
2022-09-24T02:52:28.054Z,13.00
2022-09-24T02:54:54.769Z,13.10
2022-09-24T02:59:48.653Z,13.00
2022-09-24T03:02:15.532Z,13.00
2022-09-24T03:07:11.441Z,12.90
2022-09-24T03:09:38.168Z,12.80
2022-09-24T03:12:05.061Z,12.90
2022-09-24T03:14:31.854Z,12.90
2022-09-24T03:16:58.628Z,12.90
2022-09-24T03:21:54.837Z,12.90
2022-09-24T03:24:22.962Z,12.90
2022-09-24T03:26:49.731Z,12.90
2022-09-24T03:29:16.415Z,12.80
2022-09-24T03:31:43.157Z,12.80
2022-09-24T03:34:10.095Z,12.80
2022-09-24T03:36:36.859Z,12.80
2022-09-24T03:39:03.824Z,12.80
2022-09-24T03:41:31.869Z,12.80
2022-09-24T03:43:58.588Z,12.80
2022-09-24T03:46:28.339Z,12.80
2022-09-24T03:48:55.852Z,12.80
2022-09-24T03:51:22.694Z,12.80
2022-09-24T03:53:49.492Z,12.80
2022-09-24T03:56:16.635Z,12.70
2022-09-24T03:58:47.337Z,12.70
2022-09-24T04:01:21.124Z,12.70
2022-09-24T04:03:48.549Z,12.70
2022-09-24T04:06:15.378Z,12.70
2022-09-24T04:08:42.097Z,12.70
2022-09-24T04:11:08.893Z,12.60
2022-09-24T04:13:35.592Z,12.60
2022-09-24T04:16:04.916Z,12.60
2022-09-24T04:18:35.720Z,12.60
2022-09-24T04:21:05.610Z,12.50
2022-09-24T04:23:32.347Z,12.50
2022-09-24T04:26:02.459Z,12.40
2022-09-24T04:28:30.059Z,12.40
2022-09-24T04:30:57.002Z,12.40
2022-09-24T04:33:25.123Z,12.30
2022-09-24T04:35:51.969Z,12.20
2022-09-24T04:38:20.116Z,12.30
2022-09-24T04:40:47.233Z,12.40
2022-09-24T04:43:14.208Z,12.40
2022-09-24T04:45:43.139Z,12.40
2022-09-24T04:48:09.871Z,12.40
2022-09-24T04:50:43.286Z,12.30
2022-09-24T04:53:12.428Z,12.20
2022-09-24T04:55:39.605Z,12.30
2022-09-24T04:58:06.458Z,12.30
2022-09-24T05:00:33.313Z,12.30
2022-09-24T05:03:03.495Z,12.30
2022-09-24T05:05:31.417Z,12.40
2022-09-24T05:08:01.252Z,12.40
2022-09-24T05:10:29.616Z,12.20
2022-09-24T05:12:56.336Z,12.30
2022-09-24T05:15:23.307Z,12.30
2022-09-24T05:17:50.015Z,12.30
2022-09-24T05:20:17.073Z,12.40
2022-09-24T05:22:44.401Z,12.40
2022-09-24T05:25:14.137Z,12.40
2022-09-24T05:27:44.922Z,12.40
2022-09-24T05:30:12.299Z,12.50
2022-09-24T05:32:39.354Z,12.50
2022-09-24T05:35:09.858Z,12.40
2022-09-24T05:37:38.180Z,12.50
2022-09-24T05:40:25.610Z,12.50
2022-09-24T05:42:59.680Z,12.50
2022-09-24T05:45:26.374Z,12.50
2022-09-24T05:47:53.103Z,12.50
2022-09-24T05:50:19.778Z,12.60
2022-09-24T05:52:46.661Z,12.60
2022-09-24T05:55:13.375Z,12.60
2022-09-24T05:57:40.163Z,12.60
2022-09-24T06:00:09.199Z,12.60
2022-09-24T06:02:35.987Z,12.60
2022-09-24T06:05:02.871Z,12.70
2022-09-24T06:07:29.583Z,12.70
2022-09-24T06:09:59.084Z,12.70
2022-09-24T06:12:26.151Z,12.80
2022-09-24T06:14:53.988Z,12.80
2022-09-24T06:17:22.158Z,12.90
2022-09-24T06:19:48.919Z,12.90
2022-09-24T06:22:15.705Z,12.90
2022-09-24T06:24:42.388Z,12.90
2022-09-24T06:27:09.180Z,12.90
2022-09-24T06:29:35.895Z,12.90
2022-09-24T06:32:02.895Z,12.90
2022-09-24T06:34:30.984Z,12.90
2022-09-24T06:36:57.694Z,13.00
2022-09-24T06:39:25.924Z,13.00
2022-09-24T06:41:53.037Z,13.00
2022-09-24T06:44:20.204Z,13.10
2022-09-24T06:46:47.161Z,13.00
2022-09-24T06:49:13.954Z,13.00
2022-09-24T06:51:42.457Z,13.00
2022-09-24T06:54:09.159Z,13.10
2022-09-24T06:56:35.852Z,13.20
2022-09-24T06:59:02.698Z,13.20
2022-09-24T07:01:29.585Z,13.20
2022-09-24T07:03:56.431Z,13.20
2022-09-24T07:06:23.165Z,13.30
2022-09-24T07:08:52.021Z,13.30
2022-09-24T07:11:18.819Z,13.20
2022-09-24T07:13:45.687Z,13.30
2022-09-24T07:16:12.502Z,13.40
2022-09-24T07:18:39.271Z,13.30
2022-09-24T07:21:06.227Z,13.30
2022-09-24T07:23:33.034Z,13.30
2022-09-24T07:26:01.076Z,13.30
2022-09-24T07:28:27.896Z,13.20
2022-09-24T07:30:58.860Z,13.10
2022-09-24T07:33:25.790Z,13.00
2022-09-24T07:35:52.541Z,13.00
2022-09-24T07:38:19.394Z,13.10
2022-09-24T07:40:46.138Z,13.10
2022-09-24T07:43:14.618Z,13.00
2022-09-24T07:45:42.284Z,13.10
2022-09-24T07:48:10.567Z,13.20
2022-09-24T07:50:39.489Z,13.20
2022-09-24T07:53:06.598Z,13.30
2022-09-24T07:55:39.235Z,13.30
2022-09-24T07:58:07.917Z,13.40
2022-09-24T08:00:36.061Z,13.40
2022-09-24T08:03:03.704Z,13.60
2022-09-24T08:05:30.500Z,13.60
2022-09-24T08:07:57.724Z,13.60
2022-09-24T08:10:26.373Z,13.60
2022-09-24T08:12:53.791Z,13.60
2022-09-24T08:15:22.569Z,13.70
2022-09-24T08:17:51.950Z,13.80
2022-09-24T08:20:19.032Z,13.80
2022-09-24T08:22:45.730Z,13.80
2022-09-24T08:25:12.446Z,13.80
2022-09-24T08:27:39.242Z,13.80
2022-09-24T08:30:07.243Z,13.90
2022-09-24T08:32:34.120Z,13.90
2022-09-24T08:35:02.153Z,13.90
2022-09-24T08:37:29.636Z,14.00
2022-09-24T08:39:57.358Z,14.10
2022-09-24T08:42:34.779Z,14.10
2022-09-24T08:45:37.344Z,14.20
2022-09-24T08:48:12.003Z,14.20
2022-09-24T08:50:47.959Z,14.30
2022-09-24T08:53:20.341Z,14.30
2022-09-24T08:55:48.597Z,14.30
2022-09-24T08:58:31.811Z,14.20
2022-09-24T09:01:05.577Z,14.30
2022-09-24T09:03:37.117Z,14.40
2022-09-24T09:06:15.927Z,14.40
2022-09-24T09:09:06.434Z,14.40
2022-09-24T09:11:35.909Z,14.50
2022-09-24T09:14:08.691Z,14.40
2022-09-24T09:16:43.613Z,14.60
2022-09-24T09:19:14.135Z,14.80
2022-09-24T09:24:16.247Z,14.90
2022-09-24T09:26:46.586Z,14.80
2022-09-24T09:29:13.386Z,14.90
2022-09-24T09:31:49.392Z,15.00
2022-09-24T09:34:32.919Z,15.00
2022-09-24T09:37:14.175Z,15.10
2022-09-24T09:39:50.801Z,15.10
2022-09-24T09:42:29.117Z,15.20
2022-09-24T09:44:56.025Z,15.30
2022-09-24T09:47:32.789Z,15.30
2022-09-24T09:50:05.862Z,15.40
2022-09-24T09:52:38.139Z,15.40
2022-09-24T09:55:07.102Z,15.60
2022-09-24T09:57:38.554Z,15.60
2022-09-24T10:00:06.201Z,15.60
2022-09-24T10:02:35.357Z,15.60
2022-09-24T10:05:03.838Z,15.80
2022-09-24T10:07:31.595Z,15.80
2022-09-24T10:10:01.497Z,16.00
2022-09-24T10:12:30.265Z,16.00
2022-09-24T10:15:01.978Z,15.90
2022-09-24T10:17:33.544Z,15.80
2022-09-24T10:20:02.345Z,16.00
2022-09-24T10:22:30.150Z,16.00
2022-09-24T10:24:59.791Z,15.80
2022-09-24T10:27:32.982Z,15.90
2022-09-24T10:30:20.294Z,16.20
2022-09-24T10:32:55.078Z,16.20
2022-09-24T10:35:26.593Z,16.30
2022-09-24T10:37:54.848Z,16.40
2022-09-24T10:40:25.552Z,16.40
2022-09-24T10:43:01.474Z,16.40
2022-09-24T10:45:46.862Z,16.40
2022-09-24T10:48:20.102Z,16.50
2022-09-24T10:50:54.717Z,16.50
2022-09-24T10:53:32.111Z,16.50
2022-09-24T10:56:06.270Z,16.50
2022-09-24T10:59:11.242Z,16.60
2022-09-24T11:01:47.648Z,16.60
2022-09-24T11:04:26.349Z,16.50
2022-09-24T11:07:16.629Z,16.60
2022-09-24T11:09:49.920Z,16.40
2022-09-24T11:12:27.785Z,16.20
2022-09-24T11:15:19.244Z,16.40
2022-09-24T11:17:58.951Z,16.40
2022-09-24T11:20:33.786Z,16.40
2022-09-24T11:23:33.522Z,16.40
2022-09-24T11:26:03.372Z,16.50
2022-09-24T11:28:50.465Z,16.40
2022-09-24T11:31:24.110Z,16.30
2022-09-24T11:34:08.143Z,16.30
2022-09-24T11:36:52.443Z,16.40
2022-09-24T11:39:33.863Z,16.30
2022-09-24T11:42:08.038Z,16.40
2022-09-24T11:45:03.006Z,16.50
2022-09-24T11:47:45.020Z,16.50
2022-09-24T11:50:27.038Z,16.60
2022-09-24T11:53:00.527Z,16.70
2022-09-24T11:55:34.681Z,16.60
2022-09-24T11:58:12.362Z,16.30
2022-09-24T12:00:44.309Z,16.20
2022-09-24T12:03:25.211Z,16.40
2022-09-24T12:06:00.509Z,16.60
2022-09-24T12:08:32.221Z,16.70
2022-09-24T12:11:04.194Z,16.70
2022-09-24T12:13:36.010Z,16.70
2022-09-24T12:16:08.302Z,16.80
2022-09-24T12:18:44.965Z,16.80
2022-09-24T12:21:15.470Z,16.70
2022-09-24T12:23:46.033Z,16.60
2022-09-24T12:26:17.146Z,16.60
2022-09-24T12:29:13.151Z,16.70
2022-09-24T12:32:05.346Z,16.80
2022-09-24T12:34:44.446Z,16.90
2022-09-24T12:37:16.641Z,16.70
2022-09-24T12:39:50.633Z,16.70
2022-09-24T12:42:20.572Z,16.70
2022-09-24T12:44:51.918Z,16.80
2022-09-24T12:47:21.702Z,16.90
2022-09-24T12:49:52.417Z,16.80
2022-09-24T12:52:25.194Z,16.80
2022-09-24T12:54:59.031Z,16.90
2022-09-24T12:57:28.675Z,17.00
2022-09-24T12:59:57.027Z,17.20
2022-09-24T13:02:26.493Z,17.20
2022-09-24T13:05:18.445Z,17.30
2022-09-24T13:07:56.948Z,17.30
2022-09-24T13:10:26.790Z,17.30
2022-09-24T13:12:54.281Z,17.30
2022-09-24T13:15:30.319Z,17.30
2022-09-24T13:18:19.606Z,17.30
2022-09-24T13:21:00.062Z,17.40
2022-09-24T13:23:33.600Z,17.50
2022-09-24T13:26:05.119Z,17.40
2022-09-24T13:28:38.619Z,17.40
2022-09-24T13:31:14.403Z,17.20
2022-09-24T13:33:44.639Z,17.10
2022-09-24T13:36:16.973Z,17.20
2022-09-24T13:38:49.467Z,17.20
2022-09-24T13:41:25.898Z,17.30
2022-09-24T13:43:57.545Z,17.30
2022-09-24T13:46:26.741Z,17.30
2022-09-24T13:48:56.540Z,17.30
2022-09-24T13:51:27.814Z,17.20
2022-09-24T13:54:01.766Z,17.20
2022-09-24T13:56:28.708Z,17.20
2022-09-24T13:59:05.556Z,17.20
2022-09-24T14:01:39.364Z,17.00
2022-09-24T14:04:14.606Z,17.10
2022-09-24T14:06:45.783Z,17.10
2022-09-24T14:09:27.754Z,17.10
2022-09-24T14:11:58.387Z,16.70
2022-09-24T14:14:27.830Z,16.80
2022-09-24T14:19:23.293Z,16.60
2022-09-24T14:21:55.084Z,16.70
2022-09-24T14:24:25.900Z,16.60
2022-09-24T14:26:55.719Z,16.40
2022-09-24T14:29:25.869Z,18.20
2022-09-24T14:31:56.905Z,16.10
2022-09-24T14:34:31.578Z,16.00
2022-09-24T14:37:10.654Z,16.10
2022-09-24T14:39:41.251Z,16.10
2022-09-24T14:42:13.222Z,16.20
2022-09-24T14:44:44.323Z,16.20
2022-09-24T14:47:25.818Z,16.20
2022-09-24T14:49:53.277Z,15.90
2022-09-24T14:52:30.953Z,15.90
2022-09-24T14:55:09.758Z,15.90
2022-09-24T14:57:37.858Z,15.90
2022-09-24T15:00:20.377Z,15.80
2022-09-24T15:02:50.792Z,15.70
2022-09-24T15:07:47.731Z,15.60
2022-09-24T15:10:21.730Z,15.60
2022-09-24T15:12:49.953Z,15.70
2022-09-24T15:15:29.559Z,15.60
2022-09-24T15:17:56.627Z,15.60
2022-09-24T15:22:51.831Z,15.50
2022-09-24T15:25:18.596Z,15.50
2022-09-24T15:27:45.724Z,15.60
2022-09-24T15:30:18.478Z,15.50
2022-09-24T15:32:45.533Z,15.40
2022-09-24T15:35:14.637Z,15.50
2022-09-24T15:37:42.169Z,15.60
2022-09-24T15:40:17.779Z,15.60
2022-09-24T15:42:44.551Z,15.50
2022-09-24T15:45:16.660Z,15.50
2022-09-24T15:47:43.363Z,15.40
2022-09-24T15:50:10.850Z,15.50
2022-09-24T15:52:44.454Z,15.50
2022-09-24T15:55:16.800Z,15.30
2022-09-24T15:57:44.463Z,15.30
2022-09-24T16:00:16.508Z,15.30
2022-09-24T16:02:47.175Z,15.40
2022-09-24T16:05:14.947Z,15.30
2022-09-24T16:07:41.878Z,15.40
2022-09-24T16:10:10.197Z,15.50
2022-09-24T16:12:38.242Z,15.40
2022-09-24T16:15:05.906Z,15.30
2022-09-24T16:17:32.777Z,15.30
2022-09-24T16:19:59.526Z,15.30
2022-09-24T16:22:26.232Z,15.40
2022-09-24T16:24:54.060Z,15.30
2022-09-24T16:27:20.881Z,15.30
2022-09-24T16:29:49.009Z,15.30
2022-09-24T16:32:15.885Z,15.40
2022-09-24T16:34:42.675Z,15.30
2022-09-24T16:37:09.551Z,15.40
2022-09-24T16:39:36.564Z,15.40
2022-09-24T16:42:03.567Z,15.30
2022-09-24T16:44:30.281Z,15.30
2022-09-24T16:46:58.430Z,15.30
2022-09-24T16:49:25.187Z,15.30
2022-09-24T16:51:51.894Z,15.20
2022-09-24T16:54:19.742Z,15.10
2022-09-24T16:56:48.479Z,15.20
2022-09-24T16:59:16.379Z,15.10
2022-09-24T17:01:43.196Z,15.10
2022-09-24T17:04:11.303Z,15.00
2022-09-24T17:06:38.090Z,14.90
2022-09-24T17:09:23.586Z,14.80
2022-09-24T17:11:50.362Z,14.80
2022-09-24T17:14:17.827Z,14.90
2022-09-24T17:16:45.313Z,14.80
2022-09-24T17:19:13.668Z,14.70
2022-09-24T17:21:42.427Z,14.70
2022-09-24T17:24:09.630Z,14.70
2022-09-24T17:26:37.894Z,14.70
2022-09-24T17:29:04.903Z,14.70
2022-09-24T17:31:31.890Z,14.70
2022-09-24T17:34:00.133Z,14.50
2022-09-24T17:36:29.472Z,14.50
2022-09-24T17:38:56.967Z,14.50
2022-09-24T17:41:23.713Z,14.50
2022-09-24T17:43:51.916Z,14.50
2022-09-24T17:46:22.183Z,14.50
2022-09-24T17:48:52.049Z,14.50
2022-09-24T17:51:21.981Z,14.50
2022-09-24T17:53:51.659Z,14.40
2022-09-24T17:56:19.543Z,14.40
2022-09-24T17:58:47.303Z,14.50
2022-09-24T18:01:17.232Z,14.40
2022-09-24T18:03:44.082Z,14.40
2022-09-24T18:06:13.070Z,14.40
2022-09-24T18:08:41.351Z,14.50
2022-09-24T18:11:11.854Z,14.50
2022-09-24T18:13:38.858Z,14.50
2022-09-24T18:16:07.683Z,14.50
2022-09-24T18:18:34.660Z,14.50
2022-09-24T18:21:02.367Z,14.60
2022-09-24T18:23:30.207Z,14.60
2022-09-24T18:26:07.534Z,14.60
2022-09-24T18:28:35.637Z,14.60
2022-09-24T18:31:05.556Z,14.60
2022-09-24T18:33:33.216Z,14.60
2022-09-24T18:36:02.324Z,14.60
2022-09-24T18:38:31.764Z,14.70
2022-09-24T18:40:59.156Z,14.60
2022-09-24T18:43:26.356Z,14.70
2022-09-24T18:45:54.567Z,14.70
2022-09-24T18:48:21.398Z,14.70
2022-09-24T18:50:48.134Z,14.70
2022-09-24T18:53:14.851Z,14.70
2022-09-24T18:55:42.943Z,14.70
2022-09-24T18:58:11.030Z,14.70
2022-09-24T19:00:51.051Z,14.70
2022-09-24T19:03:19.504Z,14.70
2022-09-24T19:05:47.664Z,14.70
2022-09-24T19:08:14.553Z,14.80
2022-09-24T19:10:41.575Z,14.80
2022-09-24T19:13:08.705Z,14.80
2022-09-24T19:15:36.282Z,14.80
2022-09-24T19:18:09.292Z,14.80
2022-09-24T19:20:38.172Z,14.80
2022-09-24T19:23:05.076Z,14.80
2022-09-24T19:25:33.551Z,14.70
2022-09-24T19:28:00.474Z,14.60
2022-09-24T19:30:27.645Z,14.50
2022-09-24T19:32:54.334Z,14.40
2022-09-24T19:35:21.221Z,14.40
2022-09-24T19:37:49.327Z,14.40
2022-09-24T19:40:16.211Z,14.40
2022-09-24T19:42:44.023Z,14.30
2022-09-24T19:45:11.114Z,14.30
2022-09-24T19:47:37.800Z,14.10
2022-09-24T19:50:05.225Z,14.10
2022-09-24T19:52:32.075Z,14.00
2022-09-24T19:55:00.180Z,13.80
2022-09-24T19:57:27.153Z,13.90
2022-09-24T19:59:53.923Z,13.80
2022-09-24T20:02:20.740Z,13.70
2022-09-24T20:04:47.469Z,13.70
2022-09-24T20:07:14.211Z,13.70
2022-09-24T20:09:41.083Z,13.70
2022-09-24T20:12:17.927Z,13.80
2022-09-24T20:14:45.145Z,13.80
2022-09-24T20:17:12.169Z,13.80
2022-09-24T20:19:39.157Z,13.80
2022-09-24T20:22:08.546Z,13.70
2022-09-24T20:24:35.754Z,13.60
2022-09-24T20:27:21.267Z,13.50
2022-09-24T20:29:49.347Z,13.30
2022-09-24T20:34:43.313Z,13.30
2022-09-24T20:37:10.471Z,13.20
2022-09-24T20:39:37.190Z,13.20
2022-09-24T20:42:05.767Z,13.30
2022-09-24T20:44:32.830Z,13.30
2022-09-24T20:47:01.011Z,13.30
2022-09-24T20:49:28.094Z,13.40
2022-09-24T20:51:57.433Z,13.50
2022-09-24T20:54:25.544Z,13.60
2022-09-24T20:56:52.331Z,13.50
2022-09-24T20:59:19.114Z,13.60
2022-09-24T21:01:47.999Z,13.70
2022-09-24T21:04:17.173Z,13.80
2022-09-24T21:06:43.871Z,13.70
2022-09-24T21:09:10.774Z,13.80
2022-09-24T21:11:38.051Z,13.80
2022-09-24T21:14:05.573Z,13.90
2022-09-24T21:16:34.031Z,14.00
2022-09-24T21:19:00.960Z,13.90
2022-09-24T21:21:30.871Z,14.00
2022-09-24T21:23:58.613Z,14.00
2022-09-24T21:26:27.384Z,14.00
2022-09-24T21:28:55.944Z,13.90
2022-09-24T21:31:25.642Z,14.00
2022-09-24T21:33:53.210Z,13.90
2022-09-24T21:36:21.904Z,13.70
2022-09-24T21:38:54.366Z,13.70
2022-09-24T21:41:22.585Z,13.70
2022-09-24T21:43:49.532Z,13.50
2022-09-24T21:48:43.705Z,13.40
2022-09-24T21:51:21.206Z,13.30
2022-09-24T21:53:48.483Z,13.20
2022-09-24T21:56:18.691Z,13.30
2022-09-24T21:58:46.028Z,13.20
2022-09-24T22:01:16.139Z,13.10
2022-09-24T22:03:45.155Z,13.20
2022-09-24T22:06:12.976Z,13.10
2022-09-24T22:08:39.744Z,13.10
2022-09-24T22:11:08.724Z,13.00
2022-09-24T22:13:38.214Z,13.00
2022-09-24T22:16:06.906Z,13.10
2022-09-24T22:21:06.435Z,13.00
2022-09-24T22:26:00.629Z,12.90
2022-09-24T22:28:28.462Z,12.80
2022-09-24T22:30:59.282Z,12.80
2022-09-24T22:33:47.765Z,12.80
2022-09-24T22:36:15.032Z,12.80
2022-09-24T22:38:42.163Z,12.90
2022-09-24T22:41:10.929Z,12.80
2022-09-24T22:43:38.711Z,12.80
2022-09-24T22:46:08.465Z,12.80
2022-09-24T22:48:35.805Z,12.80
2022-09-24T22:51:04.928Z,12.80
2022-09-24T22:53:34.143Z,12.80
2022-09-24T22:56:06.474Z,12.80
2022-09-24T22:58:33.710Z,12.70
2022-09-24T23:01:07.900Z,12.80
2022-09-24T23:03:35.358Z,12.80
2022-09-24T23:08:33.152Z,12.80
2022-09-24T23:11:06.108Z,12.80
2022-09-24T23:13:33.013Z,12.80
2022-09-24T23:16:10.184Z,12.90
2022-09-24T23:18:37.632Z,12.90
2022-09-24T23:21:06.222Z,13.00
2022-09-24T23:23:33.556Z,13.10
2022-09-24T23:26:05.270Z,13.10
2022-09-24T23:28:33.710Z,13.10
2022-09-24T23:31:01.835Z,13.00
2022-09-24T23:33:32.361Z,12.80
2022-09-24T23:35:59.955Z,12.80
2022-09-24T23:38:26.962Z,12.90
2022-09-24T23:40:54.023Z,12.80
2022-09-24T23:43:21.163Z,12.70
2022-09-24T23:45:48.054Z,12.70
2022-09-24T23:50:47.821Z,12.70
2022-09-24T23:53:15.637Z,12.60
2022-09-24T23:55:46.193Z,12.50
2022-09-24T23:58:16.755Z,12.50
